Time;durP1;ratioP1;P1;durP2;ratioP2;P2;SDS_P1;SDS_P2;PMS_P1;PMS_P2;Temp;Humidity;BMP_temperature;BMP_pressure;BME280_temperature;BME280_humidity;BME280_pressure;Samples;Min_cycle;Max_cycle;Signal;HPM_P1;HPM_P2
2020/12/16 00:01:34;;;;;;;22.88;13.00;;;;;;;6.79;95.45;98782.88;5032468;28;20032;-71
2020/12/16 00:03:59;;;;;;;24.80;13.52;;;;;;;6.68;95.63;98775.22;5031981;28;20391;-71
2020/12/16 00:06:24;;;;;;;24.52;13.65;;;;;;;6.57;95.28;98790.75;5031176;28;20025;-71
2020/12/16 00:08:50;;;;;;;25.70;14.70;;;;;;;6.48;95.57;98777.56;5030063;28;20029;-73
2020/12/16 00:11:15;;;;;;;25.77;12.75;;;;;;;6.48;95.16;98781.06;5026883;28;20464;-74
2020/12/16 00:13:40;;;;;;;26.98;11.13;;;;;;;6.36;95.68;98794.06;5031490;28;20534;-72
2020/12/16 00:16:07;;;;;;;26.80;11.48;;;;;;;6.13;95.67;98780.59;5030580;28;20041;-72
2020/12/16 00:18:33;;;;;;;32.65;10.98;;;;;;;6.06;95.22;98797.59;5032132;28;20483;-72
2020/12/16 00:20:58;;;;;;;39.25;13.23;;;;;;;5.92;95.90;98788.38;5029949;28;20034;-72
2020/12/16 00:23:23;;;;;;;76.88;13.98;;;;;;;5.90;95.69;98795.78;5031671;28;20475;-72
2020/12/16 00:25:48;;;;;;;26.95;11.65;;;;;;;5.84;96.01;98800.00;5031681;28;20033;-72
2020/12/16 00:28:14;;;;;;;57.42;12.90;;;;;;;5.78;95.77;98792.63;5030166;28;20021;-72
2020/12/16 00:30:39;;;;;;;40.47;11.50;;;;;;;5.79;96.44;98799.69;5030842;28;20071;-72
2020/12/16 00:33:04;;;;;;;52.30;12.13;;;;;;;5.73;96.41;98781.56;5032122;28;20112;-73
2020/12/16 00:35:29;;;;;;;72.18;14.35;;;;;;;5.76;96.41;98791.94;5031320;28;20037;-74
2020/12/16 00:37:57;;;;;;;67.75;12.63;;;;;;;5.77;96.60;98796.31;5031970;28;20057;-73
2020/12/16 00:40:23;;;;;;;74.95;13.65;;;;;;;5.80;96.01;98795.97;5029082;28;20029;-74
2020/12/16 00:42:50;;;;;;;24.92;11.15;;;;;;;5.89;96.59;98792.25;5030991;28;20037;-73
2020/12/16 00:45:16;;;;;;;30.90;13.02;;;;;;;6.01;96.75;98799.97;5020605;28;20025;-73
2020/12/16 00:47:41;;;;;;;22.45;11.02;;;;;;;6.30;96.67;98793.94;5021487;28;20076;-74
2020/12/16 00:50:07;;;;;;;19.65;9.93;;;;;;;6.36;96.16;98783.31;5027744;28;20388;-73
2020/12/16 00:52:33;;;;;;;18.13;10.77;;;;;;;6.36;95.81;98793.22;5029864;28;20475;-73
2020/12/16 00:54:58;;;;;;;21.45;12.75;;;;;;;6.34;95.69;98793.41;5031695;28;20083;-74
2020/12/16 00:57:24;;;;;;;25.02;14.15;;;;;;;6.27;94.88;98789.75;5031463;28;20026;-74
2020/12/16 00:59:49;;;;;;;23.88;13.30;;;;;;;6.30;94.72;98789.41;5029964;28;20104;-74
2020/12/16 01:02:15;;;;;;;23.30;13.60;;;;;;;6.31;94.40;98785.72;5026928;28;20029;-74
2020/12/16 01:04:40;;;;;;;23.08;13.32;;;;;;;6.39;94.81;98792.88;5023434;28;20088;-74
2020/12/16 01:07:05;;;;;;;28.45;14.45;;;;;;;6.36;94.12;98787.84;5029506;28;20395;-74
2020/12/16 01:09:31;;;;;;;25.98;14.07;;;;;;;6.51;95.09;98798.69;5031685;28;20025;-71
2020/12/16 01:11:56;;;;;;;23.77;13.20;;;;;;;6.43;94.99;98793.38;5031123;28;20087;-71
2020/12/16 01:14:21;;;;;;;30.13;14.70;;;;;;;6.37;95.40;98802.97;5029273;28;20487;-72
2020/12/16 01:16:47;;;;;;;24.58;13.88;;;;;;;6.29;95.24;98798.50;5029150;28;20031;-72
2020/12/16 01:19:12;;;;;;;32.92;15.18;;;;;;;6.29;95.69;98808.41;5020107;28;20442;-71
2020/12/16 01:21:37;;;;;;;25.52;14.00;;;;;;;6.30;96.21;98818.97;5029696;28;20033;-71
2020/12/16 01:24:05;;;;;;;20.80;11.52;;;;;;;6.22;95.62;98819.00;5031065;28;20021;-72
2020/12/16 01:26:40;;;;;;;24.05;12.85;;;;;;;6.21;95.95;98828.09;5012102;28;20021;-74
2020/12/16 01:29:06;;;;;;;27.70;14.60;;;;;;;6.08;95.90;98828.63;5031389;28;20108;-73
2020/12/16 01:31:43;;;;;;;23.27;14.20;;;;;;;6.07;95.93;98839.53;5031255;28;20120;-73
2020/12/16 01:34:09;;;;;;;27.80;13.23;;;;;;;5.95;95.63;98841.78;5012730;28;20438;-74
2020/12/16 01:36:42;;;;;;;45.60;10.80;;;;;;;5.90;95.61;98842.25;5018206;28;20026;-74
2020/12/16 01:39:10;;;;;;;24.25;9.07;;;;;;;5.87;95.55;98842.59;5031020;28;20026;-73
2020/12/16 01:41:47;;;;;;;35.20;11.43;;;;;;;5.67;95.53;98820.66;5016749;28;20395;-74
2020/12/16 01:44:18;;;;;;;27.95;11.25;;;;;;;5.83;95.86;98833.22;5015957;28;20021;-73
2020/12/16 01:46:55;;;;;;;24.05;10.77;;;;;;;5.87;95.83;98844.47;5016296;28;20040;-74
2020/12/16 01:49:21;;;;;;;22.02;10.13;;;;;;;5.88;95.81;98848.81;5031533;28;20026;-74
2020/12/16 01:52:02;;;;;;;27.85;10.48;;;;;;;5.88;95.95;98846.13;5022779;28;20045;-74
2020/12/16 01:54:29;;;;;;;38.70;12.20;;;;;;;5.78;95.77;98832.06;5022880;28;20060;-74
2020/12/16 01:56:57;;;;;;;25.63;11.60;;;;;;;5.80;95.65;98846.97;5031504;28;20116;-72
2020/12/16 01:59:23;;;;;;;25.83;11.45;;;;;;;5.76;95.84;98840.25;5034474;28;20025;-72
2020/12/16 02:01:54;;;;;;;38.60;11.63;;;;;;;5.66;96.00;98835.13;5034396;28;20100;-72
2020/12/16 02:04:24;;;;;;;14.00;8.68;;;;;;;5.78;95.74;98818.63;5034309;28;20033;-72
2020/12/16 02:06:54;;;;;;;12.85;8.20;;;;;;;5.94;95.58;98821.28;5033676;28;20033;-72
2020/12/16 02:09:21;;;;;;;75.35;12.75;;;;;;;5.92;95.68;98832.19;5030876;28;20025;-72
2020/12/16 02:11:47;;;;;;;116.63;12.40;;;;;;;5.89;95.65;98835.22;5030948;28;20060;-72
2020/12/16 02:14:13;;;;;;;30.73;10.98;;;;;;;5.82;95.57;98834.22;5013473;28;20047;-72
2020/12/16 02:16:39;;;;;;;21.15;10.77;;;;;;;5.70;95.69;98836.44;5044352;28;20376;-72
2020/12/16 02:19:06;;;;;;;25.98;11.85;;;;;;;5.66;95.97;98836.97;5034292;28;20049;-72
2020/12/16 02:21:33;;;;;;;28.95;12.35;;;;;;;5.66;95.91;98839.66;5032171;28;20025;-73
2020/12/16 02:24:08;;;;;;;50.67;13.45;;;;;;;5.64;96.38;98836.28;5031518;28;20029;-73
2020/12/16 02:26:35;;;;;;;47.42;13.32;;;;;;;5.62;95.79;98838.31;5015378;28;20032;-73
2020/12/16 02:29:00;;;;;;;27.23;12.57;;;;;;;5.58;96.13;98832.44;5033657;28;20022;-73
2020/12/16 02:31:29;;;;;;;22.88;11.40;;;;;;;5.62;95.78;98836.44;5033258;28;20372;-73
2020/12/16 02:33:54;;;;;;;30.83;13.55;;;;;;;5.57;96.10;98841.50;5028268;28;20025;-73
2020/12/16 02:36:20;;;;;;;22.30;11.60;;;;;;;5.55;96.30;98845.34;5024301;28;20490;-73
2020/12/16 02:38:47;;;;;;;125.53;15.23;;;;;;;5.52;96.20;98837.66;5034153;28;20407;-73
2020/12/16 02:41:12;;;;;;;26.92;12.45;;;;;;;5.44;95.72;98836.63;5033512;28;20124;-73
2020/12/16 02:43:38;;;;;;;26.75;13.80;;;;;;;5.43;96.26;98847.56;5033442;28;20108;-73
2020/12/16 02:46:03;;;;;;;19.83;11.15;;;;;;;5.50;96.34;98845.84;5030179;28;20495;-73
2020/12/16 02:48:29;;;;;;;22.92;11.38;;;;;;;5.40;96.61;98823.75;5028612;28;20483;-73
2020/12/16 02:50:54;;;;;;;22.67;11.25;;;;;;;5.52;96.49;98851.06;5032052;28;20383;-73
2020/12/16 02:53:19;;;;;;;17.90;10.45;;;;;;;5.61;95.88;98850.88;5027323;28;20033;-73
2020/12/16 02:55:44;;;;;;;24.10;11.38;;;;;;;5.61;96.48;98850.06;5033438;28;20037;-73
2020/12/16 02:58:10;;;;;;;19.45;11.50;;;;;;;5.47;95.94;98841.66;5032654;28;20029;-72
2020/12/16 03:00:35;;;;;;;22.08;12.20;;;;;;;5.47;96.38;98847.03;5030175;28;20586;-72
2020/12/16 03:03:00;;;;;;;26.80;12.82;;;;;;;5.52;96.55;98851.06;5032479;28;20030;-72
2020/12/16 03:05:26;;;;;;;16.48;10.65;;;;;;;5.79;95.83;98842.63;5015180;28;20033;-73
2020/12/16 03:07:51;;;;;;;18.15;10.98;;;;;;;5.83;95.54;98837.75;5013968;28;20396;-72
2020/12/16 03:10:16;;;;;;;19.58;10.43;;;;;;;5.86;95.02;98846.28;5032570;28;20032;-72
2020/12/16 03:12:41;;;;;;;68.30;11.70;;;;;;;5.77;95.20;98843.81;5027705;28;20029;-73
2020/12/16 03:15:07;;;;;;;111.63;13.32;;;;;;;5.66;95.31;98834.28;5033809;28;20040;-73
2020/12/16 03:17:32;;;;;;;33.80;10.57;;;;;;;5.86;95.55;98840.09;5028279;28;20034;-73
2020/12/16 03:19:57;;;;;;;41.10;11.95;;;;;;;5.79;95.16;98829.22;5017548;28;20052;-73
2020/12/16 03:22:23;;;;;;;73.07;12.52;;;;;;;5.76;95.21;98832.22;5024005;28;20017;-73
2020/12/16 03:24:48;;;;;;;54.85;11.93;;;;;;;5.73;95.35;98837.94;5040203;28;20387;-73
2020/12/16 03:27:13;;;;;;;37.95;10.57;;;;;;;5.79;95.19;98825.66;5015019;28;20040;-73
2020/12/16 03:29:38;;;;;;;42.22;10.95;;;;;;;5.68;95.19;98816.13;5058069;23;20051;-73
2020/12/16 03:32:04;;;;;;;50.58;11.80;;;;;;;5.67;95.77;98835.94;5044695;28;20029;-74
2020/12/16 03:34:29;;;;;;;39.38;11.70;;;;;;;5.64;95.21;98837.13;5041407;28;20037;-73
2020/12/16 03:36:54;;;;;;;82.28;13.70;;;;;;;5.58;95.60;98843.19;5057627;28;20039;-74
2020/12/16 03:39:19;;;;;;;37.92;12.43;;;;;;;5.69;95.82;98850.03;5041747;28;20104;-73
2020/12/16 03:41:45;;;;;;;47.63;13.68;;;;;;;5.61;95.85;98817.84;5054111;28;20098;-73
2020/12/16 03:44:10;;;;;;;42.80;12.88;;;;;;;5.63;96.15;98813.13;5055923;28;20033;-74
2020/12/16 03:46:35;;;;;;;61.38;13.13;;;;;;;5.64;95.90;98815.66;5037147;28;20125;-73
2020/12/16 03:49:01;;;;;;;62.70;12.88;;;;;;;5.78;95.72;98840.94;5037132;28;20038;-73
2020/12/16 03:51:26;;;;;;;98.32;13.85;;;;;;;5.66;95.94;98839.66;5041236;28;20111;-73
2020/12/16 03:53:51;;;;;;;87.15;14.05;;;;;;;5.69;95.96;98836.63;5069122;28;20029;-73
2020/12/16 03:56:16;;;;;;;50.15;13.10;;;;;;;5.69;95.71;98828.56;5035137;28;20541;-73
2020/12/16 03:58:44;;;;;;;67.15;13.43;;;;;;;5.73;95.82;98840.63;5035313;28;20025;-73
2020/12/16 04:01:11;;;;;;;36.65;10.27;;;;;;;5.68;95.97;98842.97;5055488;28;20029;-73
2020/12/16 04:03:37;;;;;;;44.65;9.98;;;;;;;5.60;95.73;98845.69;5063283;28;20028;-73
2020/12/16 04:06:06;;;;;;;48.88;9.05;;;;;;;5.58;95.76;98842.31;5042570;28;20115;-73
2020/12/16 04:08:32;;;;;;;25.20;9.23;;;;;;;5.37;95.27;98813.34;5036618;28;20031;-72
2020/12/16 04:10:57;;;;;;;23.10;9.43;;;;;;;5.45;95.37;98850.91;5053321;28;20083;-72
2020/12/16 04:13:23;;;;;;;127.32;11.55;;;;;;;5.36;95.67;98839.34;5043735;28;20020;-73
2020/12/16 04:15:48;;;;;;;26.55;9.80;;;;;;;5.19;95.86;98817.06;5034877;28;20089;-74
2020/12/16 04:18:14;;;;;;;25.25;10.60;;;;;;;5.35;95.36;98847.56;5055053;28;20555;-72
2020/12/16 04:20:39;;;;;;;27.40;9.70;;;;;;;5.25;95.83;98823.59;5054522;28;20056;-74
2020/12/16 04:23:05;;;;;;;51.47;9.88;;;;;;;5.29;95.94;98835.66;5034179;28;20024;-74
2020/12/16 04:25:32;;;;;;;16.55;8.10;;;;;;;5.18;95.72;98820.72;5059664;28;20131;-73
2020/12/16 04:27:57;;;;;;;18.52;9.63;;;;;;;5.28;95.79;98836.66;5034727;28;20048;-75
2020/12/16 04:30:23;;;;;;;19.42;10.27;;;;;;;5.36;95.69;98831.28;5050419;28;20478;-73
2020/12/16 04:32:51;;;;;;;34.80;11.82;;;;;;;5.38;95.74;98844.53;5053294;28;20025;-72
2020/12/16 04:35:18;;;;;;;19.83;10.52;;;;;;;5.37;95.89;98837.47;5053366;28;20067;-73
2020/12/16 04:37:47;;;;;;;18.75;9.82;;;;;;;5.39;95.85;98838.16;5054703;28;20040;-74
2020/12/16 04:40:13;;;;;;;18.02;9.77;;;;;;;5.35;95.81;98826.94;5058666;28;20028;-74
2020/12/16 04:42:40;;;;;;;27.42;11.82;;;;;;;5.38;96.14;98842.69;5044896;28;20053;-74
2020/12/16 04:45:06;;;;;;;24.17;11.43;;;;;;;5.19;96.06;98811.69;5054613;28;20063;-73
2020/12/16 04:47:32;;;;;;;20.88;10.90;;;;;;;5.20;96.30;98812.53;5058949;28;20061;-73
2020/12/16 04:49:57;;;;;;;20.15;10.00;;;;;;;5.32;95.61;98840.69;5034968;28;20456;-73
2020/12/16 04:52:27;;;;;;;21.48;8.82;;;;;;;5.19;95.83;98832.31;5052396;28;20053;-73
2020/12/16 04:54:53;;;;;;;34.63;8.55;;;;;;;5.22;95.66;98834.66;5052428;28;20892;-73
2020/12/16 04:57:18;;;;;;;17.02;8.75;;;;;;;5.24;95.27;98856.81;5034667;28;20189;-74
2020/12/16 04:59:44;;;;;;;13.05;8.43;;;;;;;5.14;95.50;98869.53;5053681;28;20364;-73
2020/12/16 05:02:09;;;;;;;19.58;8.85;;;;;;;5.10;95.64;98871.69;5061592;28;20025;-74
2020/12/16 05:04:34;;;;;;;27.33;9.82;;;;;;;5.03;95.52;98860.81;5063692;28;20024;-74
2020/12/16 05:06:59;;;;;;;27.23;9.45;;;;;;;4.99;95.75;98851.41;5063051;28;20488;-75
2020/12/16 05:09:25;;;;;;;23.08;9.40;;;;;;;5.09;95.97;98869.19;5034856;28;20029;-74
2020/12/16 05:11:51;;;;;;;15.50;10.05;;;;;;;5.08;96.00;98867.50;5056328;28;20021;-75
2020/12/16 05:14:18;;;;;;;25.25;10.70;;;;;;;5.12;96.54;98867.00;5035169;28;20590;-69
2020/12/16 05:16:51;;;;;;;13.05;8.82;;;;;;;5.15;96.23;98864.00;5034120;28;20079;-72
2020/12/16 05:19:35;;;;;;;12.60;8.05;;;;;;;5.48;95.99;98880.09;5048759;28;20387;-75
2020/12/16 05:22:10;;;;;;;12.63;7.80;;;;;;;5.55;96.04;98880.22;5041149;28;20025;-71
2020/12/16 05:24:36;;;;;;;27.67;9.57;;;;;;;5.52;95.44;98875.22;5043490;28;20032;-71
2020/12/16 05:27:02;;;;;;;18.40;8.65;;;;;;;5.47;95.04;98868.50;5053059;28;20381;-76
2020/12/16 05:29:27;;;;;;;21.02;9.85;;;;;;;5.41;95.17;98876.41;5043641;28;20063;-74
2020/12/16 05:31:52;;;;;;;18.63;10.60;;;;;;;5.45;95.30;98886.63;5027148;28;20505;-73
2020/12/16 05:34:18;;;;;;;19.15;9.63;;;;;;;5.41;95.84;98877.22;5040337;28;20020;-75
2020/12/16 05:36:43;;;;;;;16.20;9.40;;;;;;;5.42;95.66;98865.50;5056205;28;20558;-74
2020/12/16 05:39:10;;;;;;;20.38;9.75;;;;;;;5.34;95.49;98861.97;5042600;28;20524;-73
2020/12/16 05:41:35;;;;;;;15.55;8.45;;;;;;;5.44;95.31;98871.53;5048287;28;20096;-74
2020/12/16 05:44:33;;;;;;;16.63;9.75;;;;;;;5.39;95.42;98871.19;5037206;28;20033;-74
2020/12/16 05:47:08;;;;;;;17.58;9.43;;;;;;;5.39;95.18;98884.59;5003058;28;20146;-75
2020/12/16 05:49:34;;;;;;;16.25;9.15;;;;;;;5.42;95.44;98883.44;5051805;28;20033;-73
2020/12/16 05:52:01;;;;;;;17.70;9.02;;;;;;;5.52;95.62;98896.69;5041068;28;20025;-75
2020/12/16 05:54:27;;;;;;;16.63;9.57;;;;;;;5.50;95.57;98891.47;5051215;28;20025;-73
2020/12/16 05:57:14;;;;;;;18.08;8.43;;;;;;;5.46;95.24;98892.81;5040002;28;20027;-72
2020/12/16 05:59:39;;;;;;;16.33;9.05;;;;;;;5.48;94.78;98905.06;5041431;28;20076;-69
2020/12/16 06:02:06;;;;;;;17.27;9.35;;;;;;;5.50;94.71;98888.78;5048297;28;20471;-74
2020/12/16 06:04:35;;;;;;;14.25;8.43;;;;;;;5.71;95.21;98899.84;5037650;28;20397;-76
2020/12/16 06:07:03;;;;;;;13.65;8.35;;;;;;;5.99;94.57;98910.22;5027914;28;20017;-74
2020/12/16 06:09:31;;;;;;;16.40;8.30;;;;;;;5.92;94.31;98907.38;5044062;28;20049;-75
2020/12/16 06:12:04;;;;;;;13.75;8.70;;;;;;;5.78;94.51;98885.75;5036031;28;20079;-70
2020/12/16 06:14:33;;;;;;;16.77;8.50;;;;;;;5.82;94.43;98904.03;5035640;28;20025;-68
2020/12/16 06:17:09;;;;;;;17.38;10.40;;;;;;;5.88;94.53;98918.63;5040470;28;20052;-70
2020/12/16 06:19:35;;;;;;;17.83;10.23;;;;;;;5.88;94.90;98919.44;5040828;28;20086;-70
2020/12/16 06:22:08;;;;;;;15.60;9.10;;;;;;;5.90;94.97;98912.06;5036958;28;20695;-70
2020/12/16 06:24:43;;;;;;;15.93;8.52;;;;;;;5.89;94.97;98917.59;5052794;28;20032;-70
2020/12/16 06:27:10;;;;;;;14.88;9.38;;;;;;;5.90;94.90;98928.19;5038323;28;20025;-70
2020/12/16 06:29:38;;;;;;;22.42;11.35;;;;;;;5.75;94.03;98919.13;5032860;28;20021;-70
2020/12/16 06:32:10;;;;;;;24.40;12.75;;;;;;;5.69;93.45;98920.66;5064911;28;20024;-69
2020/12/16 06:34:37;;;;;;;22.70;12.63;;;;;;;5.67;93.72;98922.66;5050689;28;20052;-70
2020/12/16 06:37:03;;;;;;;21.25;11.80;;;;;;;5.59;94.16;98920.00;5045592;28;20096;-70
2020/12/16 06:39:29;;;;;;;19.98;10.25;;;;;;;5.69;94.72;98927.88;5032152;28;20056;-69
2020/12/16 06:41:59;;;;;;;22.27;11.55;;;;;;;5.71;94.99;98928.53;5046435;28;20033;-67
2020/12/16 06:44:25;;;;;;;21.98;12.05;;;;;;;5.72;94.89;98935.59;5050270;28;20100;-72
2020/12/16 06:46:52;;;;;;;21.10;11.73;;;;;;;5.77;95.34;98935.91;5051053;28;20025;-72
2020/12/16 06:49:26;;;;;;;20.25;12.07;;;;;;;5.75;95.10;98934.41;5039966;28;20025;-75
2020/12/16 06:51:54;;;;;;;22.35;10.95;;;;;;;5.75;94.79;98937.09;5049935;28;20025;-75
2020/12/16 06:54:21;;;;;;;18.60;10.73;;;;;;;5.63;95.29;98920.47;5052942;28;20367;-69
2020/12/16 06:56:48;;;;;;;16.65;10.85;;;;;;;5.85;95.14;98949.34;5028804;28;20106;-69
2020/12/16 06:59:43;;;;;;;21.15;10.02;;;;;;;5.82;94.78;98946.16;5042210;28;20059;-70
2020/12/16 07:02:10;;;;;;;18.88;10.30;;;;;;;5.80;94.98;98935.56;5050847;28;20033;-70
2020/12/16 07:04:35;;;;;;;15.68;10.57;;;;;;;6.03;95.20;98929.53;5035537;28;20490;-74
2020/12/16 07:07:00;;;;;;;15.23;9.43;;;;;;;6.08;94.54;98924.50;5054196;28;20036;-76
2020/12/16 07:09:32;;;;;;;14.15;8.50;;;;;;;6.03;94.36;98916.13;5050822;28;20036;-77
2020/12/16 07:11:57;;;;;;;16.23;9.35;;;;;;;5.99;94.39;98920.13;5032433;28;20025;-77
2020/12/16 07:14:27;;;;;;;17.05;9.57;;;;;;;6.02;94.11;98927.84;5040404;28;20028;-79
2020/12/16 07:17:04;;;;;;;16.23;9.48;;;;;;;5.98;94.10;98934.59;5049350;28;20043;-75
2020/12/16 07:19:30;;;;;;;16.67;9.45;;;;;;;5.89;93.76;98926.53;5060515;28;20398;-80
2020/12/16 07:21:55;;;;;;;16.70;8.82;;;;;;;5.89;94.13;98937.25;5037062;28;20028;-69
2020/12/16 07:24:22;;;;;;;13.35;8.73;;;;;;;5.98;94.18;98948.03;5048486;28;20502;-70
2020/12/16 07:26:53;;;;;;;16.40;9.27;;;;;;;6.06;94.13;98943.47;5048500;28;20021;-72
2020/12/16 07:29:25;;;;;;;14.30;8.90;;;;;;;6.12;94.13;98963.41;5017325;28;20731;-74
2020/12/16 07:32:08;;;;;;;14.25;8.32;;;;;;;6.01;93.99;98950.34;5028462;28;20474;-73
2020/12/16 07:34:49;;;;;;;12.80;8.27;;;;;;;6.11;93.87;98957.22;5032642;28;20116;-74
2020/12/16 07:37:17;;;;;;;14.07;8.65;;;;;;;6.15;93.56;98969.28;5029300;28;20023;-71
2020/12/16 07:39:56;;;;;;;14.75;8.82;;;;;;;6.13;93.63;98973.16;5033286;28;20024;-74
2020/12/16 07:42:42;;;;;;;18.70;8.95;;;;;;;6.14;93.35;98967.63;5048001;28;20021;-73
2020/12/16 07:45:09;;;;;;;11.70;7.43;;;;;;;6.14;93.67;98970.31;5041265;28;20039;-75
2020/12/16 07:47:35;;;;;;;13.50;8.15;;;;;;;6.12;93.84;98961.56;5050611;28;20032;-70
2020/12/16 07:50:00;;;;;;;14.32;8.77;;;;;;;6.13;93.56;98963.25;5049705;28;20094;-74
2020/12/16 07:52:28;;;;;;;13.63;9.00;;;;;;;6.22;93.42;98974.81;5030581;28;20150;-72
2020/12/16 07:54:54;;;;;;;17.23;8.43;;;;;;;6.26;93.43;98960.03;5045929;28;20122;-72
2020/12/16 07:57:30;;;;;;;16.13;9.38;;;;;;;6.30;92.79;98961.38;5039031;28;20032;-72
2020/12/16 07:59:56;;;;;;;15.90;8.50;;;;;;;6.29;93.16;98954.31;5041214;28;20029;-71
2020/12/16 08:02:21;;;;;;;14.35;9.85;;;;;;;6.33;92.17;98966.38;5047664;28;20493;-71
2020/12/16 08:04:57;;;;;;;18.30;10.13;;;;;;;6.44;91.72;98959.81;5043878;28;20033;-72
2020/12/16 08:07:22;;;;;;;17.63;9.75;;;;;;;6.40;91.74;98949.59;5038986;28;20017;-72
2020/12/16 08:09:51;;;;;;;21.52;10.43;;;;;;;6.52;91.87;98962.50;5023607;28;20033;-72
2020/12/16 08:12:18;;;;;;;19.02;10.00;;;;;;;6.43;91.46;98952.75;5022387;28;20056;-72
2020/12/16 08:14:43;;;;;;;15.93;9.80;;;;;;;6.53;91.77;98957.94;5020809;28;20037;-72
2020/12/16 08:17:09;;;;;;;16.65;9.65;;;;;;;6.55;90.73;98959.44;5029579;28;20368;-72
2020/12/16 08:19:34;;;;;;;16.58;8.80;;;;;;;6.51;90.88;98968.03;5044460;28;20029;-72
2020/12/16 08:22:10;;;;;;;15.27;8.75;;;;;;;6.53;90.88;98992.88;5042074;28;20517;-72
2020/12/16 08:24:35;;;;;;;16.05;8.55;;;;;;;6.58;90.91;99001.28;5040040;28;20047;-72
2020/12/16 08:27:01;;;;;;;18.33;9.85;;;;;;;6.62;90.95;99007.97;5046567;28;20487;-70
2020/12/16 08:29:28;;;;;;;20.98;9.30;;;;;;;6.44;90.54;98993.91;5043441;28;20037;-77
2020/12/16 08:31:55;;;;;;;15.07;9.18;;;;;;;6.66;90.31;99014.69;5043663;28;20036;-75
2020/12/16 08:34:21;;;;;;;19.23;9.38;;;;;;;6.68;90.29;98993.84;5049268;28;20051;-73
2020/12/16 08:36:47;;;;;;;17.00;9.80;;;;;;;6.60;89.81;98983.09;5032835;28;20107;-74
2020/12/16 08:39:13;;;;;;;15.65;9.15;;;;;;;6.82;89.05;98996.81;5047044;28;20048;-75
2020/12/16 08:41:43;;;;;;;18.85;10.40;;;;;;;6.70;89.53;98982.91;5051957;28;20032;-74
2020/12/16 08:44:09;;;;;;;14.50;9.18;;;;;;;6.89;88.53;98985.19;5051222;28;20028;-74
2020/12/16 08:46:39;;;;;;;19.80;9.52;;;;;;;6.92;88.24;98984.00;5050276;28;20025;-75
2020/12/16 08:49:04;;;;;;;12.85;8.30;;;;;;;6.80;88.06;98976.31;5049316;28;20025;-71
2020/12/16 08:51:36;;;;;;;15.25;9.57;;;;;;;6.76;88.89;98979.53;5037923;28;20025;-71
2020/12/16 08:54:26;;;;;;;21.33;9.85;;;;;;;6.73;89.03;98986.09;5045627;28;20029;-71
2020/12/16 08:56:56;;;;;;;17.40;8.55;;;;;;;6.88;88.48;98994.25;5047660;28;20638;-71
2020/12/16 08:59:21;;;;;;;14.27;8.55;;;;;;;7.00;88.67;98990.16;5033580;28;20108;-72
2020/12/16 09:01:49;;;;;;;14.90;8.68;;;;;;;7.38;87.05;98992.97;5036689;28;20048;-71
2020/12/16 09:04:28;;;;;;;11.63;7.25;;;;;;;7.71;85.42;98987.38;5029861;28;20159;-71
2020/12/16 09:07:12;;;;;;;13.82;8.02;;;;;;;7.90;84.99;98988.72;5042554;28;20028;-76
2020/12/16 09:09:40;;;;;;;11.63;7.82;;;;;;;8.03;84.34;98983.53;5045508;28;20127;-77
2020/12/16 09:12:16;;;;;;;11.75;7.22;;;;;;;8.10;84.36;98980.97;5047024;28;20017;-74
2020/12/16 09:14:50;;;;;;;11.52;7.43;;;;;;;8.30;84.63;98982.09;5045345;28;20035;-76
2020/12/16 09:17:16;;;;;;;11.00;7.20;;;;;;;9.53;80.98;98982.41;5042433;28;20052;-73
2020/12/16 09:19:41;;;;;;;9.48;6.07;;;;;;;11.36;74.24;98994.91;5043801;28;20068;-73
2020/12/16 09:22:06;;;;;;;12.13;6.50;;;;;;;12.09;71.10;98999.66;5042732;28;20033;-73
2020/12/16 09:24:32;;;;;;;9.45;6.20;;;;;;;11.95;70.96;98982.56;5041805;28;20021;-73
2020/12/16 09:27:05;;;;;;;11.60;6.68;;;;;;;11.92;71.33;99007.34;5026971;28;20029;-73
2020/12/16 09:29:30;;;;;;;13.38;6.57;;;;;;;12.26;69.88;98999.03;5068436;22;20057;-72
2020/12/16 09:32:11;;;;;;;10.15;6.43;;;;;;;13.47;65.26;98983.25;5043146;28;20033;-73
2020/12/16 09:34:39;;;;;;;11.20;6.90;;;;;;;14.53;63.23;98998.78;5041561;28;20037;-72
2020/12/16 09:37:10;;;;;;;12.85;7.40;;;;;;;15.16;60.93;99005.03;5039078;28;20024;-73
2020/12/16 09:39:35;;;;;;;8.90;6.82;;;;;;;15.00;61.66;98993.66;5043298;28;20029;-74
2020/12/16 09:42:08;;;;;;;11.73;6.80;;;;;;;16.27;57.70;98994.63;5024036;28;20106;-81
2020/12/16 09:44:33;;;;;;;12.15;7.22;;;;;;;17.49;55.21;98983.69;5032155;28;20029;-78
2020/12/16 09:47:18;;;;;;;11.20;7.18;;;;;;;18.02;54.39;98989.06;5032324;28;20075;-77
2020/12/16 09:49:46;;;;;;;9.25;7.00;;;;;;;18.81;51.52;98986.22;5022072;28;20035;-76
2020/12/16 09:52:46;;;;;;;11.40;7.30;;;;;;;18.12;53.56;98972.81;5030389;28;20060;-77
2020/12/16 09:55:14;;;;;;;12.50;8.60;;;;;;;18.92;51.27;98981.72;4968530;28;20042;-77
2020/12/16 09:57:40;;;;;;;14.73;9.10;;;;;;;19.18;50.49;98969.19;5020449;28;20045;-78
2020/12/16 10:00:06;;;;;;;10.32;8.02;;;;;;;19.12;49.68;98986.63;5032669;28;20474;-77
2020/12/16 10:02:32;;;;;;;10.25;7.60;;;;;;;18.73;50.80;98986.63;5041854;28;20124;-74
2020/12/16 10:04:57;;;;;;;11.52;6.95;;;;;;;17.72;54.15;98971.81;5033541;28;20053;-75
2020/12/16 10:07:22;;;;;;;10.90;7.20;;;;;;;16.48;57.01;98979.56;5033536;28;20383;-73
2020/12/16 10:09:54;;;;;;;12.00;7.85;;;;;;;15.06;60.31;98978.31;5028837;28;20129;-73
2020/12/16 10:12:23;;;;;;;11.50;8.30;;;;;;;14.06;62.72;98978.44;5030183;28;20014;-73
2020/12/16 10:14:49;;;;;;;14.20;8.48;;;;;;;13.54;65.30;98986.75;5032578;28;20025;-73
2020/12/16 10:17:14;;;;;;;16.70;9.05;;;;;;;12.98;66.11;98977.38;5029217;28;20100;-73
2020/12/16 10:19:40;;;;;;;13.07;9.32;;;;;;;13.28;66.35;98975.00;5035624;28;20031;-73
2020/12/16 10:22:05;;;;;;;12.40;8.27;;;;;;;13.20;65.85;98974.34;5052952;28;20028;-73
2020/12/16 10:24:31;;;;;;;14.25;9.10;;;;;;;13.81;64.78;98968.38;5050802;28;20033;-74
2020/12/16 10:26:56;;;;;;;16.25;8.65;;;;;;;16.17;58.58;98946.94;5037193;28;20071;-74
2020/12/16 10:29:21;;;;;;;12.88;7.80;;;;;;;19.40;52.39;98956.25;5031007;28;20028;-73
2020/12/16 10:31:50;;;;;;;11.18;7.47;;;;;;;20.63;48.35;98946.41;5031889;28;20046;-73
2020/12/16 10:34:16;;;;;;;9.98;7.07;;;;;;;21.57;45.71;98941.88;5033054;28;20363;-73
2020/12/16 10:36:42;;;;;;;9.13;6.40;;;;;;;21.53;45.78;98934.41;5032889;28;20109;-74
2020/12/16 10:39:08;;;;;;;10.18;6.88;;;;;;;19.41;49.34;98951.59;5031296;28;20095;-72
2020/12/16 10:41:34;;;;;;;9.65;6.68;;;;;;;20.17;48.21;98957.00;5032837;28;20060;-73
2020/12/16 10:44:00;;;;;;;12.50;6.90;;;;;;;18.74;51.23;98945.25;5032260;28;20112;-72
2020/12/16 10:46:25;;;;;;;11.93;7.40;;;;;;;17.22;54.79;98942.41;5031168;28;20029;-73
2020/12/16 10:48:50;;;;;;;11.93;7.20;;;;;;;16.46;56.94;98938.88;5033781;28;20493;-73
2020/12/16 10:51:15;;;;;;;10.07;6.70;;;;;;;17.16;55.39;98939.81;5033286;28;20072;-73
2020/12/16 10:53:41;;;;;;;11.68;6.32;;;;;;;17.24;54.07;98926.59;5030640;28;20120;-73
2020/12/16 10:56:07;;;;;;;10.40;6.80;;;;;;;16.39;56.85;98943.59;5031315;28;20045;-74
2020/12/16 10:58:33;;;;;;;11.35;6.57;;;;;;;16.62;56.75;98943.59;5030801;28;20108;-74
2020/12/16 11:00:58;;;;;;;11.35;7.38;;;;;;;16.74;55.61;98938.13;5028927;28;20132;-73
2020/12/16 11:03:23;;;;;;;12.57;7.07;;;;;;;17.83;53.80;98930.97;5030875;28;20044;-74
2020/12/16 11:05:49;;;;;;;10.27;6.13;;;;;;;19.04;51.07;98919.34;5029348;28;20033;-73
2020/12/16 11:08:14;;;;;;;10.43;5.93;;;;;;;19.80;49.41;98922.09;5029099;28;20029;-74
2020/12/16 11:10:39;;;;;;;10.73;6.00;;;;;;;20.78;47.57;98916.25;5028979;28;20039;-73
2020/12/16 11:13:05;;;;;;;9.20;6.72;;;;;;;20.83;46.84;98918.19;5028243;28;20021;-73
2020/12/16 11:15:33;;;;;;;11.88;6.65;;;;;;;21.75;45.25;98909.41;5028925;28;20111;-73
2020/12/16 11:17:58;;;;;;;11.38;6.80;;;;;;;21.57;45.67;98903.31;5029454;28;20029;-73
2020/12/16 11:20:24;;;;;;;10.40;6.95;;;;;;;20.69;46.90;98906.00;5029178;28;20055;-73
2020/12/16 11:22:49;;;;;;;11.95;7.10;;;;;;;19.20;50.42;98925.84;5026760;28;20033;-72
2020/12/16 11:25:14;;;;;;;8.13;6.28;;;;;;;19.61;49.83;98923.53;5026044;28;20037;-73
2020/12/16 11:27:40;;;;;;;10.27;6.38;;;;;;;20.46;47.85;98923.69;5029418;28;20415;-73
2020/12/16 11:30:05;;;;;;;10.65;6.65;;;;;;;20.75;47.51;98919.53;5027560;28;20108;-73
2020/12/16 11:32:30;;;;;;;9.40;6.15;;;;;;;22.06;45.23;98912.97;5029440;28;20029;-73